createdAt,value
2017-11-07T00:01:03.668Z,22.75
2017-11-07T00:02:09.681Z,22.15
2017-11-07T00:03:15.209Z,21.23
2017-11-07T00:04:20.675Z,22.37
2017-11-07T00:05:26.133Z,21.10
2017-11-07T00:06:31.723Z,21.15
2017-11-07T00:07:37.249Z,20.92
2017-11-07T00:08:42.766Z,20.45
2017-11-07T00:09:48.165Z,20.55
2017-11-07T00:10:53.613Z,21.27
2017-11-07T00:11:59.061Z,20.05
2017-11-07T00:13:05.212Z,20.08
2017-11-07T00:14:10.900Z,20.30
2017-11-07T00:15:16.424Z,20.67
2017-11-07T00:16:21.907Z,19.67
2017-11-07T00:17:27.433Z,19.80
2017-11-07T00:18:32.885Z,20.12
2017-11-07T00:19:38.772Z,21.13
2017-11-07T00:20:44.221Z,20.40
2017-11-07T00:21:49.800Z,20.40
2017-11-07T00:22:55.691Z,21.95
2017-11-07T00:24:01.221Z,20.25
2017-11-07T00:25:06.684Z,20.10
2017-11-07T00:26:12.447Z,20.45
2017-11-07T00:27:17.957Z,19.08
2017-11-07T00:28:23.449Z,19.60
2017-11-07T00:30:31.580Z,20.15
2017-11-07T00:31:37.071Z,21.30
2017-11-07T00:32:42.507Z,20.55
2017-11-07T00:33:47.952Z,20.40
2017-11-07T00:34:53.485Z,20.67
2017-11-07T00:35:58.925Z,20.77
2017-11-07T00:37:04.372Z,20.73
2017-11-07T00:38:09.761Z,20.15
2017-11-07T00:39:15.243Z,21.33
2017-11-07T00:40:20.918Z,20.35
2017-11-07T00:41:26.381Z,21.35
2017-11-07T00:42:31.991Z,20.70
2017-11-07T00:43:38.043Z,21.45
2017-11-07T00:44:43.607Z,20.80
2017-11-07T00:45:49.060Z,20.00
2017-11-07T00:46:54.559Z,19.20
2017-11-07T00:48:00.784Z,21.40
2017-11-07T00:49:06.205Z,21.58
2017-11-07T00:50:11.620Z,20.92
2017-11-07T00:51:17.052Z,20.85
2017-11-07T00:52:22.650Z,20.42
2017-11-07T00:53:28.080Z,20.33
2017-11-07T00:54:33.535Z,19.58
2017-11-07T00:55:38.956Z,19.40
2017-11-07T00:56:44.458Z,19.85
2017-11-07T00:57:49.910Z,21.50
2017-11-07T00:58:55.462Z,19.70
2017-11-07T01:00:01.363Z,19.45
2017-11-07T01:01:06.813Z,20.92
2017-11-07T01:02:12.453Z,20.40
2017-11-07T01:03:17.978Z,20.33
2017-11-07T01:04:23.441Z,18.62
2017-11-07T01:05:29.181Z,19.12
2017-11-07T01:06:35.029Z,20.98
2017-11-07T01:07:40.496Z,20.58
2017-11-07T01:08:45.938Z,20.15
2017-11-07T01:09:51.393Z,20.93
2017-11-07T01:10:58.171Z,20.73
2017-11-07T01:12:03.817Z,19.90
2017-11-07T01:13:09.269Z,20.67
2017-11-07T01:14:15.388Z,19.73
2017-11-07T01:15:21.079Z,20.77
2017-11-07T01:16:26.576Z,19.67
2017-11-07T01:17:32.006Z,19.77
2017-11-07T01:18:37.526Z,20.10
2017-11-07T01:19:43.224Z,20.00
2017-11-07T01:20:48.622Z,20.05
2017-11-07T01:21:54.262Z,20.62
2017-11-07T01:22:59.774Z,20.98
2017-11-07T01:24:06.112Z,20.15
2017-11-07T01:25:11.711Z,20.17
2017-11-07T01:26:17.179Z,19.73
2017-11-07T01:27:22.704Z,19.92
2017-11-07T01:28:29.001Z,19.48
2017-11-07T01:29:34.613Z,20.17
2017-11-07T01:30:40.221Z,19.23
2017-11-07T01:31:45.917Z,19.00
2017-11-07T01:32:51.630Z,19.20
2017-11-07T01:33:57.192Z,18.80
2017-11-07T01:35:03.053Z,18.00
2017-11-07T01:36:08.442Z,19.15
2017-11-07T01:37:13.895Z,18.05
2017-11-07T01:38:19.341Z,17.60
2017-11-07T01:39:24.787Z,16.90
2017-11-07T01:40:30.399Z,17.48
2017-11-07T01:41:36.210Z,16.67
2017-11-07T01:42:41.633Z,17.67
2017-11-07T01:43:47.161Z,16.37
2017-11-07T01:44:52.913Z,15.77
2017-11-07T01:45:58.557Z,15.88
2017-11-07T01:47:04.146Z,16.65
2017-11-07T01:48:09.801Z,16.23
2017-11-07T01:49:15.264Z,16.48
2017-11-07T01:50:20.910Z,17.08
2017-11-07T01:51:26.380Z,18.75
2017-11-07T01:52:32.216Z,18.67
2017-11-07T01:53:38.143Z,19.60
2017-11-07T01:54:43.784Z,20.37
2017-11-07T01:55:49.404Z,19.92
2017-11-07T01:56:55.373Z,20.33
2017-11-07T01:58:01.171Z,19.87
2017-11-07T01:59:07.031Z,20.70
2017-11-07T02:00:12.940Z,21.65
2017-11-07T02:01:18.479Z,21.33
2017-11-07T02:02:24.185Z,20.52
2017-11-07T02:03:30.093Z,20.47
2017-11-07T02:04:35.563Z,21.58
2017-11-07T02:05:41.786Z,21.95
2017-11-07T02:06:47.240Z,21.70
2017-11-07T02:07:52.796Z,21.52
2017-11-07T02:08:58.238Z,22.50
2017-11-07T02:10:04.036Z,22.85
2017-11-07T02:11:10.223Z,21.73
2017-11-07T02:12:15.820Z,20.27
2017-11-07T02:13:21.436Z,21.33
2017-11-07T02:14:27.116Z,20.75
2017-11-07T02:15:33.349Z,20.30
2017-11-07T02:16:38.813Z,19.70
2017-11-07T02:17:44.670Z,18.98
2017-11-07T02:18:50.744Z,20.35
2017-11-07T02:19:56.216Z,20.90
2017-11-07T02:21:01.852Z,20.83
2017-11-07T02:22:07.430Z,20.73
2017-11-07T02:23:13.026Z,20.02
2017-11-07T02:24:18.547Z,20.27
2017-11-07T02:25:24.032Z,20.40
2017-11-07T02:26:29.459Z,19.45
2017-11-07T02:27:35.099Z,18.67
2017-11-07T02:28:41.008Z,18.20
2017-11-07T02:29:46.740Z,18.20
2017-11-07T02:30:52.208Z,20.05
2017-11-07T02:31:57.824Z,19.95
2017-11-07T02:33:03.401Z,18.42
2017-11-07T02:34:09.063Z,19.00
2017-11-07T02:35:14.816Z,19.62
2017-11-07T02:36:20.553Z,20.10
2017-11-07T02:37:25.954Z,19.20
2017-11-07T02:38:31.386Z,18.48
2017-11-07T02:39:37.203Z,18.98
2017-11-07T02:40:42.912Z,18.87
2017-11-07T02:41:48.362Z,18.73
2017-11-07T02:42:54.170Z,20.02
2017-11-07T02:43:59.741Z,19.30
2017-11-07T02:45:05.653Z,21.45
2017-11-07T02:46:11.371Z,19.27
2017-11-07T02:47:16.867Z,19.20
2017-11-07T02:48:22.449Z,19.35
2017-11-07T02:49:28.298Z,19.23
2017-11-07T02:50:34.294Z,19.42
2017-11-07T02:51:39.977Z,18.77
2017-11-07T02:52:45.448Z,18.15
2017-11-07T02:53:51.260Z,18.90
2017-11-07T02:54:56.855Z,17.25
2017-11-07T02:56:02.579Z,18.08
2017-11-07T02:57:08.377Z,18.33
2017-11-07T02:58:14.145Z,18.65
2017-11-07T02:59:19.952Z,17.77
2017-11-07T03:00:25.548Z,17.90
2017-11-07T03:01:31.221Z,17.90
2017-11-07T03:02:36.642Z,18.58
2017-11-07T03:03:42.130Z,17.00
2017-11-07T03:04:47.588Z,18.48
2017-11-07T03:05:53.126Z,17.92
2017-11-07T03:06:58.527Z,18.70
2017-11-07T03:08:04.287Z,18.75
2017-11-07T03:09:10.118Z,73.53
2017-11-07T03:10:15.567Z,90.28
2017-11-07T03:11:21.444Z,43.70
2017-11-07T03:12:26.939Z,23.85
2017-11-07T03:13:32.519Z,19.52
2017-11-07T03:14:38.170Z,17.37
2017-11-07T03:15:43.969Z,18.25
2017-11-07T03:16:50.118Z,17.80
2017-11-07T03:17:55.988Z,18.83
2017-11-07T03:19:01.765Z,17.95
2017-11-07T03:20:07.202Z,17.70
2017-11-07T03:21:12.744Z,19.55
2017-11-07T03:22:19.586Z,19.33
2017-11-07T03:23:25.305Z,18.67
2017-11-07T03:24:30.752Z,18.33
2017-11-07T03:25:36.154Z,17.92
2017-11-07T03:26:41.712Z,18.55
2017-11-07T03:27:47.530Z,18.70
2017-11-07T03:28:53.436Z,18.02
2017-11-07T03:29:59.001Z,18.27
2017-11-07T03:31:04.638Z,17.90
2017-11-07T03:32:10.318Z,18.77
2017-11-07T03:33:15.956Z,18.42
2017-11-07T03:34:21.515Z,16.80
2017-11-07T03:35:26.968Z,17.65
2017-11-07T03:36:32.476Z,17.67
2017-11-07T03:37:38.443Z,16.58
2017-11-07T03:38:44.320Z,18.08
2017-11-07T03:39:50.668Z,17.77
2017-11-07T03:40:56.409Z,16.85
2017-11-07T03:42:02.153Z,17.15
2017-11-07T03:43:07.849Z,16.75
2017-11-07T03:44:13.315Z,17.67
2017-11-07T03:45:19.484Z,16.70
2017-11-07T03:46:25.317Z,16.98
2017-11-07T03:47:30.930Z,16.25
2017-11-07T03:48:36.387Z,16.57
2017-11-07T03:49:41.848Z,16.87
2017-11-07T03:50:47.329Z,17.10
2017-11-07T03:51:53.062Z,17.60
2017-11-07T03:52:58.786Z,17.48
2017-11-07T03:54:04.175Z,17.15
2017-11-07T03:55:09.650Z,16.75
2017-11-07T03:56:15.331Z,17.37
2017-11-07T03:57:20.800Z,17.27
2017-11-07T03:58:26.370Z,16.67
2017-11-07T03:59:31.883Z,17.20
2017-11-07T04:00:37.661Z,16.30
2017-11-07T04:01:43.188Z,18.20
2017-11-07T04:02:48.900Z,16.80
2017-11-07T04:03:54.333Z,16.20
2017-11-07T04:04:59.936Z,16.73
2017-11-07T04:06:05.345Z,16.60
2017-11-07T04:07:11.540Z,16.50
2017-11-07T04:08:17.198Z,16.95
2017-11-07T04:09:22.596Z,16.95
2017-11-07T04:10:28.268Z,15.40
2017-11-07T04:11:33.714Z,16.65
2017-11-07T04:12:39.097Z,17.00
2017-11-07T04:13:44.524Z,15.57
2017-11-07T04:14:49.944Z,16.55
2017-11-07T04:15:55.928Z,16.40
2017-11-07T04:17:01.346Z,16.95
2017-11-07T04:18:06.778Z,15.82
2017-11-07T04:19:12.295Z,16.75
2017-11-07T04:20:17.751Z,15.73
2017-11-07T04:21:23.313Z,16.42
2017-11-07T04:22:28.755Z,17.17
2017-11-07T04:23:34.192Z,15.82
2017-11-07T04:24:39.843Z,15.73
2017-11-07T04:25:45.917Z,15.23
2017-11-07T04:26:51.667Z,15.27
2017-11-07T04:27:57.311Z,15.05
2017-11-07T04:29:03.256Z,15.07
2017-11-07T04:30:08.689Z,15.00
2017-11-07T04:31:14.249Z,15.88
2017-11-07T04:32:19.900Z,16.52
2017-11-07T04:33:25.467Z,15.70
2017-11-07T04:34:31.026Z,15.93
2017-11-07T04:35:36.428Z,16.52
2017-11-07T04:36:41.886Z,16.35
2017-11-07T04:37:47.284Z,16.60
2017-11-07T04:38:52.720Z,17.03
2017-11-07T04:39:58.160Z,17.27
2017-11-07T04:41:03.562Z,17.20
2017-11-07T04:42:08.975Z,18.83
2017-11-07T04:43:14.659Z,18.85
2017-11-07T04:44:20.111Z,18.30
2017-11-07T04:45:25.616Z,19.65
2017-11-07T04:46:31.033Z,20.12
2017-11-07T04:47:36.476Z,20.10
2017-11-07T04:48:41.936Z,19.48
2017-11-07T04:49:47.592Z,19.50
2017-11-07T04:50:52.998Z,19.95
2017-11-07T04:51:58.419Z,18.15
2017-11-07T04:53:03.845Z,18.20
2017-11-07T04:54:09.291Z,17.45
2017-11-07T04:55:14.864Z,17.50
2017-11-07T04:56:20.326Z,17.20
2017-11-07T04:57:25.747Z,17.62
2017-11-07T04:58:31.183Z,19.60
2017-11-07T04:59:37.038Z,19.60
2017-11-07T05:00:42.865Z,20.92
2017-11-07T05:01:48.268Z,21.20
2017-11-07T05:02:53.996Z,20.10
2017-11-07T05:03:59.545Z,21.40
2017-11-07T05:05:05.194Z,21.27
2017-11-07T05:06:10.961Z,20.83
2017-11-07T05:07:16.522Z,21.40
2017-11-07T05:08:22.647Z,21.70
2017-11-07T05:09:28.133Z,20.48
2017-11-07T05:10:33.699Z,19.98
2017-11-07T05:11:39.155Z,19.55
2017-11-07T05:12:44.560Z,17.45
2017-11-07T05:13:50.068Z,19.50
2017-11-07T05:14:55.500Z,18.62
2017-11-07T05:16:00.957Z,17.45
2017-11-07T05:17:06.777Z,15.82
2017-11-07T05:18:12.195Z,15.57
2017-11-07T05:19:17.650Z,13.80
2017-11-07T05:20:23.063Z,15.05
2017-11-07T05:21:28.519Z,15.80
2017-11-07T05:22:33.919Z,16.55
2017-11-07T05:23:39.684Z,16.02
2017-11-07T05:24:45.430Z,16.52
2017-11-07T05:25:50.872Z,17.58
2017-11-07T05:26:56.275Z,16.90
2017-11-07T05:28:01.758Z,17.35
2017-11-07T05:29:07.165Z,17.37
2017-11-07T05:30:12.664Z,17.15
2017-11-07T05:31:18.089Z,17.02
2017-11-07T05:32:23.491Z,16.83
2017-11-07T05:33:28.964Z,15.63
2017-11-07T05:34:34.439Z,16.55
2017-11-07T05:35:39.848Z,16.70
2017-11-07T05:36:45.288Z,15.77
2017-11-07T05:37:50.699Z,15.25
2017-11-07T05:38:56.148Z,16.52
2017-11-07T05:40:01.655Z,15.43
2017-11-07T05:41:07.075Z,15.32
2017-11-07T05:42:12.558Z,15.60
2017-11-07T05:43:18.007Z,14.87
2017-11-07T05:44:23.452Z,15.47
2017-11-07T05:45:28.872Z,14.75
2017-11-07T05:46:34.370Z,14.20
2017-11-07T05:47:40.123Z,14.02
2017-11-07T05:48:45.605Z,14.13
2017-11-07T05:49:51.103Z,14.07
2017-11-07T05:50:56.798Z,14.13
2017-11-07T05:52:02.341Z,14.07
2017-11-07T05:53:07.813Z,14.23
2017-11-07T05:54:13.397Z,13.75
2017-11-07T05:55:18.872Z,13.30
2017-11-07T05:56:24.359Z,12.55
2017-11-07T05:57:30.051Z,13.62
2017-11-07T05:58:35.535Z,13.25
2017-11-07T05:59:40.987Z,13.02
2017-11-07T06:00:46.923Z,13.30
2017-11-07T06:01:52.362Z,13.02
2017-11-07T06:02:57.854Z,13.43
2017-11-07T06:04:03.373Z,13.60
2017-11-07T06:05:09.077Z,14.60
2017-11-07T06:06:14.568Z,15.30
2017-11-07T06:07:20.042Z,14.57
2017-11-07T06:08:25.726Z,15.43
2017-11-07T06:09:32.474Z,14.90
2017-11-07T06:10:37.989Z,14.57
2017-11-07T06:11:44.379Z,14.87
2017-11-07T06:12:50.121Z,14.63
2017-11-07T06:13:55.604Z,14.68
2017-11-07T06:15:01.187Z,15.13
2017-11-07T06:16:07.219Z,14.87
2017-11-07T06:17:12.668Z,14.85
2017-11-07T06:18:18.298Z,18.05
2017-11-07T06:19:23.725Z,15.82
2017-11-07T06:20:29.223Z,16.02
2017-11-07T06:21:34.741Z,16.15
2017-11-07T06:22:40.497Z,17.08
2017-11-07T06:23:46.196Z,18.05
2017-11-07T06:24:51.688Z,16.37
2017-11-07T06:25:57.624Z,15.63
2017-11-07T06:27:03.128Z,15.43
2017-11-07T06:28:08.555Z,15.95
2017-11-07T06:29:14.072Z,16.85
2017-11-07T06:30:19.521Z,16.70
2017-11-07T06:31:25.044Z,15.75
2017-11-07T06:32:30.515Z,15.50
2017-11-07T06:33:36.440Z,16.08
2017-11-07T06:34:42.493Z,14.60
2017-11-07T06:35:48.001Z,15.93
2017-11-07T06:36:53.473Z,16.92
2017-11-07T06:37:58.945Z,15.30
2017-11-07T06:39:04.545Z,15.40
2017-11-07T06:40:10.389Z,18.33
2017-11-07T06:41:16.178Z,19.92
2017-11-07T06:42:21.692Z,20.23
2017-11-07T06:43:27.158Z,19.12
2017-11-07T06:44:32.621Z,30.90
2017-11-07T06:45:38.418Z,17.37
2017-11-07T06:46:43.825Z,15.88
2017-11-07T06:47:49.278Z,16.08
2017-11-07T06:48:54.732Z,15.75
2017-11-07T06:50:00.227Z,16.50
2017-11-07T06:51:06.011Z,15.00
2017-11-07T06:52:11.466Z,15.15
2017-11-07T06:53:16.875Z,15.10
2017-11-07T06:54:22.305Z,16.85
2017-11-07T06:55:27.950Z,17.87
2017-11-07T06:56:33.563Z,15.68
2017-11-07T06:57:39.055Z,19.05
2017-11-07T06:58:44.556Z,15.50
2017-11-07T06:59:50.020Z,17.12
2017-11-07T07:00:55.725Z,17.58
2017-11-07T07:02:01.208Z,17.10
2017-11-07T07:03:07.580Z,16.85
2017-11-07T07:04:13.148Z,17.12
2017-11-07T07:05:18.612Z,17.48
2017-11-07T07:06:24.248Z,19.75
2017-11-07T07:07:29.762Z,20.80
2017-11-07T07:08:35.227Z,17.80
2017-11-07T07:09:40.896Z,16.37
2017-11-07T07:10:46.383Z,19.30
2017-11-07T07:11:51.879Z,18.90
2017-11-07T07:12:57.327Z,20.95
2017-11-07T07:14:03.194Z,20.85
2017-11-07T07:15:08.654Z,17.83
2017-11-07T07:16:14.137Z,17.83
2017-11-07T07:17:19.757Z,19.75
2017-11-07T07:18:25.205Z,18.98
2017-11-07T07:19:30.890Z,18.55
2017-11-07T07:20:36.486Z,19.90
2017-11-07T07:21:42.062Z,21.02
2017-11-07T07:22:47.583Z,18.37
2017-11-07T07:23:54.453Z,21.70
2017-11-07T07:25:00.219Z,19.87
2017-11-07T07:26:05.722Z,20.25
2017-11-07T07:27:11.175Z,19.98
2017-11-07T07:28:16.718Z,20.33
2017-11-07T07:29:22.173Z,18.90
2017-11-07T07:30:27.584Z,18.35
2017-11-07T07:31:33.164Z,17.35
2017-11-07T07:32:38.810Z,17.08
2017-11-07T07:33:44.331Z,16.70
2017-11-07T07:34:49.761Z,16.50
2017-11-07T07:35:55.214Z,14.82
2017-11-07T07:37:00.670Z,15.48
2017-11-07T07:38:06.168Z,14.87
2017-11-07T07:39:12.023Z,15.77
2017-11-07T07:40:17.575Z,15.10
2017-11-07T07:41:23.469Z,15.02
2017-11-07T07:42:28.984Z,15.05
2017-11-07T07:43:34.526Z,16.00
2017-11-07T07:44:40.063Z,15.48
2017-11-07T07:45:45.521Z,15.50
2017-11-07T07:46:51.033Z,15.75
2017-11-07T07:47:56.494Z,14.70
2017-11-07T07:49:02.329Z,15.77
2017-11-07T07:50:07.797Z,16.23
2017-11-07T07:51:13.256Z,15.88
2017-11-07T07:52:19.009Z,15.20
2017-11-07T07:53:24.453Z,16.37
2017-11-07T07:54:29.906Z,17.00
2017-11-07T07:55:35.425Z,18.65
2017-11-07T07:56:40.917Z,19.10
2017-11-07T07:57:46.417Z,17.75
2017-11-07T07:58:52.242Z,18.10
2017-11-07T07:59:57.728Z,44.15
2017-11-07T08:01:03.172Z,19.60
2017-11-07T08:02:08.628Z,23.95
2017-11-07T08:03:14.104Z,41.63
2017-11-07T08:04:19.679Z,101.10
2017-11-07T08:05:25.188Z,88.50
2017-11-07T08:06:30.748Z,35.40
2017-11-07T08:07:36.304Z,29.50
2017-11-07T08:08:41.900Z,17.30
2017-11-07T08:09:47.521Z,16.85
2017-11-07T08:10:53.041Z,15.02
2017-11-07T08:11:58.512Z,14.85
2017-11-07T08:13:04.060Z,13.60
2017-11-07T08:14:09.653Z,13.00
2017-11-07T08:15:15.334Z,13.80
2017-11-07T08:16:20.862Z,13.77
2017-11-07T08:17:26.364Z,12.52
2017-11-07T08:18:32.138Z,12.50
2017-11-07T08:19:37.629Z,13.95
2017-11-07T08:20:43.490Z,13.57
2017-11-07T08:21:48.957Z,13.10
2017-11-07T08:22:54.465Z,13.15
2017-11-07T08:24:00.071Z,13.30
2017-11-07T08:25:05.609Z,13.23
2017-11-07T08:26:11.102Z,13.40
2017-11-07T08:27:16.788Z,14.50
2017-11-07T08:28:22.342Z,14.15
2017-11-07T08:29:27.854Z,14.10
2017-11-07T08:30:33.438Z,14.50
2017-11-07T08:31:38.925Z,13.65
2017-11-07T08:32:44.828Z,13.20
2017-11-07T08:33:50.437Z,14.20
2017-11-07T08:34:55.904Z,15.43
2017-11-07T08:36:01.962Z,14.07
2017-11-07T08:37:07.476Z,14.70
2017-11-07T08:38:12.973Z,16.02
2017-11-07T08:39:18.479Z,15.98
2017-11-07T08:40:23.948Z,14.90
2017-11-07T08:41:29.387Z,15.55
2017-11-07T08:42:35.184Z,16.15
2017-11-07T08:43:40.996Z,15.32
2017-11-07T08:44:46.491Z,15.40
2017-11-07T08:45:52.237Z,15.20
2017-11-07T08:46:57.757Z,14.57
2017-11-07T08:48:03.216Z,14.60
2017-11-07T08:49:08.830Z,15.50
2017-11-07T08:50:14.325Z,14.10
2017-11-07T08:51:19.800Z,14.90
2017-11-07T08:52:25.265Z,12.95
2017-11-07T08:53:30.837Z,13.25
2017-11-07T08:54:36.320Z,12.75
2017-11-07T08:55:42.020Z,14.52
2017-11-07T08:56:47.495Z,14.38
2017-11-07T08:57:52.984Z,14.18
2017-11-07T08:58:58.450Z,14.30
2017-11-07T09:00:04.308Z,15.00
2017-11-07T09:01:09.872Z,14.80
2017-11-07T09:02:15.328Z,14.60
2017-11-07T09:03:20.910Z,14.57
2017-11-07T09:04:27.875Z,14.15
2017-11-07T09:05:33.541Z,14.82
2017-11-07T09:06:39.505Z,14.87
2017-11-07T09:07:44.986Z,15.23
2017-11-07T09:08:50.483Z,15.90
2017-11-07T09:09:55.931Z,14.60
2017-11-07T09:11:02.241Z,15.27
2017-11-07T09:12:07.740Z,15.23
2017-11-07T09:13:14.410Z,15.50
2017-11-07T09:14:19.952Z,14.93
2017-11-07T09:15:25.494Z,14.15
2017-11-07T09:16:31.029Z,14.13
2017-11-07T09:17:36.540Z,15.13
2017-11-07T09:18:42.165Z,15.73
2017-11-07T09:19:47.698Z,15.50
2017-11-07T09:20:53.194Z,15.80
2017-11-07T09:21:59.409Z,14.27
2017-11-07T09:23:04.953Z,16.20
2017-11-07T09:24:10.563Z,14.95
2017-11-07T09:25:16.017Z,15.35
2017-11-07T09:26:21.507Z,15.05
2017-11-07T09:27:28.794Z,14.48
2017-11-07T09:28:35.264Z,14.97
2017-11-07T09:29:42.366Z,15.25
2017-11-07T09:30:49.741Z,14.65
2017-11-07T09:31:56.295Z,14.80
2017-11-07T09:33:01.901Z,15.03
2017-11-07T09:34:07.572Z,14.48
2017-11-07T09:35:13.019Z,15.63
2017-11-07T09:36:18.527Z,15.23
2017-11-07T09:37:24.040Z,13.60
2017-11-07T09:38:29.855Z,15.40
2017-11-07T09:39:35.306Z,15.70
2017-11-07T09:40:40.850Z,16.42
2017-11-07T09:41:46.865Z,16.27
2017-11-07T09:42:52.511Z,14.63
2017-11-07T09:43:58.090Z,14.63
2017-11-07T09:45:05.189Z,18.12
2017-11-07T09:46:10.753Z,18.70
2017-11-07T09:47:16.262Z,17.35
2017-11-07T09:48:21.812Z,15.35
2017-11-07T09:49:27.514Z,14.68
2017-11-07T09:50:33.545Z,16.48
2017-11-07T09:51:39.143Z,17.83
2017-11-07T09:52:44.669Z,19.37
2017-11-07T09:53:50.245Z,16.30
2017-11-07T09:54:55.806Z,15.75
2017-11-07T09:56:02.647Z,15.63
2017-11-07T09:57:08.238Z,15.10
2017-11-07T09:58:13.730Z,13.48
2017-11-07T09:59:19.314Z,14.48
2017-11-07T10:00:24.955Z,14.23
2017-11-07T10:01:30.990Z,14.60
2017-11-07T10:02:36.605Z,13.77
2017-11-07T10:03:42.318Z,14.50
2017-11-07T10:04:47.886Z,13.32
2017-11-07T10:05:53.499Z,13.93
2017-11-07T10:06:58.998Z,13.15
2017-11-07T10:08:04.541Z,12.93
2017-11-07T10:09:10.052Z,13.30
2017-11-07T10:10:15.804Z,12.63
2017-11-07T10:11:21.294Z,13.40
2017-11-07T10:12:26.866Z,12.15
2017-11-07T10:13:32.349Z,12.27
2017-11-07T10:14:37.859Z,12.07
2017-11-07T10:15:43.512Z,12.75
2017-11-07T10:16:49.005Z,12.25
2017-11-07T10:17:54.629Z,10.68
2017-11-07T10:19:00.193Z,8.70
2017-11-07T10:20:05.773Z,10.38
2017-11-07T10:21:11.396Z,9.95
2017-11-07T10:22:16.964Z,9.35
2017-11-07T10:23:22.447Z,9.90
2017-11-07T10:24:28.736Z,9.67
2017-11-07T10:25:36.675Z,11.68
2017-11-07T10:26:42.699Z,11.37
2017-11-07T10:27:48.204Z,12.90
2017-11-07T10:28:54.191Z,13.02
2017-11-07T10:29:59.703Z,13.40
2017-11-07T10:31:06.378Z,13.18
2017-11-07T10:32:12.025Z,12.67
2017-11-07T10:33:18.273Z,12.60
2017-11-07T10:34:23.793Z,12.18
2017-11-07T10:35:29.333Z,11.45
2017-11-07T10:36:34.968Z,10.32
2017-11-07T10:37:40.556Z,10.25
2017-11-07T10:38:46.150Z,11.00
2017-11-07T10:39:51.719Z,10.43
2017-11-07T10:40:57.180Z,11.30
2017-11-07T10:42:03.067Z,12.13
2017-11-07T10:43:08.623Z,11.02
2017-11-07T10:44:14.150Z,11.27
2017-11-07T10:45:19.642Z,10.37
2017-11-07T10:46:25.397Z,9.90
2017-11-07T10:47:30.976Z,10.20
2017-11-07T10:48:36.502Z,10.18
2017-11-07T10:49:41.990Z,9.02
2017-11-07T10:50:47.488Z,10.15
2017-11-07T10:51:53.283Z,10.50
2017-11-07T10:52:58.790Z,10.43
2017-11-07T10:54:05.601Z,11.40
2017-11-07T10:55:11.266Z,11.25
2017-11-07T10:56:16.912Z,11.48
2017-11-07T10:57:22.477Z,14.70
2017-11-07T10:58:27.974Z,11.32
2017-11-07T10:59:33.517Z,12.37
2017-11-07T11:00:41.539Z,12.55
2017-11-07T11:01:47.437Z,12.00
2017-11-07T11:02:52.936Z,12.60
2017-11-07T11:03:58.741Z,14.13
2017-11-07T11:05:04.195Z,14.30
2017-11-07T11:06:09.653Z,15.02
2017-11-07T11:07:15.504Z,13.80
2017-11-07T11:08:21.108Z,13.45
2017-11-07T11:09:26.980Z,13.57
2017-11-07T11:10:32.660Z,14.68
2017-11-07T11:11:38.786Z,15.20
2017-11-07T11:12:44.318Z,16.92
2017-11-07T11:13:49.841Z,16.10
2017-11-07T11:14:55.510Z,15.90
2017-11-07T11:16:01.516Z,16.33
2017-11-07T11:17:07.091Z,15.68
2017-11-07T11:18:12.874Z,16.15
2017-11-07T11:19:18.435Z,15.10
2017-11-07T11:20:24.054Z,15.68
2017-11-07T11:21:29.490Z,14.77
2017-11-07T11:22:34.944Z,16.40
2017-11-07T11:23:40.767Z,14.60
2017-11-07T11:24:46.318Z,15.90
2017-11-07T11:25:51.874Z,15.10
2017-11-07T11:26:57.730Z,15.38
2017-11-07T11:28:04.703Z,15.35
2017-11-07T11:29:11.455Z,15.23
2017-11-07T11:30:19.388Z,15.40
2017-11-07T11:31:26.430Z,14.60
2017-11-07T11:32:32.286Z,15.55
2017-11-07T11:33:38.328Z,16.25
2017-11-07T11:34:44.939Z,18.10
2017-11-07T11:35:51.502Z,17.50
2017-11-07T11:36:57.337Z,20.10
2017-11-07T11:38:02.881Z,20.83
2017-11-07T11:39:08.467Z,20.17
2017-11-07T11:40:14.310Z,17.75
2017-11-07T11:41:19.841Z,17.23
2017-11-07T11:42:25.324Z,15.68
2017-11-07T11:43:30.805Z,15.30
2017-11-07T11:44:36.417Z,15.88
2017-11-07T11:45:41.952Z,15.82
2017-11-07T11:46:47.479Z,14.95
2017-11-07T11:47:53.716Z,15.33
2017-11-07T11:48:59.455Z,16.35
2017-11-07T11:50:05.038Z,15.65
2017-11-07T11:51:10.599Z,16.23
2017-11-07T11:52:16.566Z,15.07
2017-11-07T11:53:22.312Z,16.02
2017-11-07T11:54:28.784Z,16.55
2017-11-07T11:55:34.292Z,16.52
2017-11-07T11:56:40.046Z,16.27
2017-11-07T11:57:45.604Z,17.67
2017-11-07T11:58:51.079Z,16.42
2017-11-07T11:59:57.025Z,16.65
2017-11-07T12:01:03.063Z,18.20
2017-11-07T12:02:09.577Z,18.48
2017-11-07T12:03:15.245Z,17.37
2017-11-07T12:04:20.807Z,17.20
2017-11-07T12:05:26.432Z,16.50
2017-11-07T12:06:32.010Z,17.58
2017-11-07T12:07:37.639Z,17.20
2017-11-07T12:08:43.172Z,17.55
2017-11-07T12:09:48.702Z,16.83
2017-11-07T12:10:54.210Z,16.98
2017-11-07T12:11:59.762Z,17.95
2017-11-07T12:13:05.303Z,16.70
2017-11-07T12:14:10.923Z,16.15
2017-11-07T12:15:16.476Z,17.37
2017-11-07T12:16:23.591Z,16.37
2017-11-07T12:17:29.198Z,18.48
2017-11-07T12:18:34.695Z,19.23
2017-11-07T12:19:40.367Z,19.12
2017-11-07T12:20:46.462Z,17.10
2017-11-07T12:21:52.297Z,18.25
2017-11-07T12:22:57.990Z,18.40
2017-11-07T12:24:03.609Z,17.60
2017-11-07T12:25:09.234Z,18.90
2017-11-07T12:26:14.808Z,18.30
2017-11-07T12:27:20.682Z,19.30
2017-11-07T12:28:26.232Z,18.97
2017-11-07T12:29:31.842Z,18.33
2017-11-07T12:30:37.873Z,17.20
2017-11-07T12:31:43.483Z,17.98
2017-11-07T12:32:49.086Z,18.60
2017-11-07T12:33:54.700Z,18.58
2017-11-07T12:35:00.287Z,18.45
2017-11-07T12:36:05.862Z,19.08
2017-11-07T12:37:11.590Z,18.60
2017-11-07T12:38:17.478Z,19.40
2017-11-07T12:39:23.168Z,19.23
2017-11-07T12:40:28.680Z,20.13
2017-11-07T12:41:34.207Z,19.27
2017-11-07T12:42:39.752Z,19.27
2017-11-07T12:43:45.322Z,19.25
2017-11-07T12:44:50.967Z,20.42
2017-11-07T12:45:56.653Z,20.67
2017-11-07T12:47:02.245Z,20.23
2017-11-07T12:48:07.855Z,19.58
2017-11-07T12:49:13.373Z,20.70
2017-11-07T12:50:23.506Z,21.73
2017-11-07T12:51:38.246Z,20.73
2017-11-07T12:52:43.735Z,19.83
2017-11-07T12:53:49.296Z,19.43
2017-11-07T12:54:54.775Z,20.42
2017-11-07T12:56:00.311Z,21.20
2017-11-07T12:57:05.936Z,19.83
2017-11-07T12:58:11.562Z,20.67
2017-11-07T12:59:17.192Z,21.75
2017-11-07T13:00:23.129Z,21.00
2017-11-07T13:01:29.998Z,21.48
2017-11-07T13:02:35.579Z,20.98
2017-11-07T13:03:41.185Z,23.55
2017-11-07T13:04:48.563Z,23.85
2017-11-07T13:05:54.170Z,21.30
2017-11-07T13:06:59.762Z,21.00
2017-11-07T13:08:05.304Z,21.95
2017-11-07T13:09:10.852Z,21.40
2017-11-07T13:10:16.475Z,20.95
2017-11-07T13:11:21.994Z,21.67
2017-11-07T13:12:27.536Z,20.67
2017-11-07T13:13:33.133Z,21.30
2017-11-07T13:15:05.207Z,21.73
2017-11-07T13:16:10.757Z,21.45
2017-11-07T13:17:16.347Z,21.77
2017-11-07T13:18:22.056Z,21.40
2017-11-07T13:19:27.642Z,21.75
2017-11-07T13:20:33.174Z,22.00
2017-11-07T13:21:38.697Z,21.92
2017-11-07T13:22:44.298Z,23.25
2017-11-07T13:23:50.078Z,22.00
2017-11-07T13:24:55.660Z,24.25
2017-11-07T13:26:01.284Z,20.70
2017-11-07T13:27:06.865Z,22.35
2017-11-07T13:28:12.963Z,23.77
2017-11-07T13:29:18.525Z,23.97
2017-11-07T13:30:24.216Z,24.15
2017-11-07T13:31:29.870Z,22.70
2017-11-07T13:32:35.333Z,23.27
2017-11-07T13:33:45.527Z,22.87
2017-11-07T13:34:51.261Z,22.70
2017-11-07T13:35:56.994Z,24.25
2017-11-07T13:37:02.555Z,23.05
2017-11-07T13:38:08.108Z,24.70
2017-11-07T13:39:13.699Z,26.00
2017-11-07T13:40:19.236Z,26.50
2017-11-07T13:41:24.825Z,25.08
2017-11-07T13:42:32.789Z,24.80
2017-11-07T13:43:41.748Z,24.65
2017-11-07T13:44:48.792Z,25.43
2017-11-07T13:45:54.568Z,25.45
2017-11-07T13:47:31.550Z,24.35
2017-11-07T13:48:37.052Z,25.02
2017-11-07T13:49:42.638Z,24.58
2017-11-07T13:50:48.160Z,24.52
2017-11-07T13:51:53.731Z,24.20
2017-11-07T13:53:00.038Z,24.97
2017-11-07T13:54:05.743Z,25.60
2017-11-07T13:55:11.315Z,24.87
2017-11-07T13:56:17.126Z,60.35
2017-11-07T13:57:22.717Z,31.70
2017-11-07T13:58:28.248Z,25.88
2017-11-07T13:59:33.744Z,25.60
2017-11-07T14:00:39.304Z,25.92
2017-11-07T14:01:44.855Z,26.90
2017-11-07T14:02:51.439Z,27.27
2017-11-07T14:03:56.959Z,26.08
2017-11-07T14:05:02.768Z,25.23
2017-11-07T14:06:08.436Z,27.92
2017-11-07T14:07:15.405Z,26.10
2017-11-07T14:08:21.033Z,29.95